Time;durP1;ratioP1;P1;durP2;ratioP2;P2;SDS_P1;SDS_P2;PMS_P1;PMS_P2;Temp;Humidity;BMP_temperature;BMP_pressure;BME280_temperature;BME280_humidity;BME280_pressure;Samples;Min_cycle;Max_cycle;Signal;HPM_P1;HPM_P2
2022/04/21 00:00:23;;;;;;;3.97;3.17;;;7.90;99.90;;;;;;7365285;19;20333;-74
2022/04/21 00:02:49;;;;;;;4.30;3.53;;;8.00;99.90;;;;;;7372084;19;20340;-74
2022/04/21 00:05:15;;;;;;;4.80;3.20;;;7.90;99.90;;;;;;7372396;19;20381;-72
2022/04/21 00:07:41;;;;;;;3.38;3.05;;;7.90;99.90;;;;;;7374643;19;20340;-74
2022/04/21 00:10:07;;;;;;;4.80;3.53;;;8.00;99.90;;;;;;7369729;19;20361;-74
2022/04/21 00:12:34;;;;;;;4.47;3.17;;;7.90;99.90;;;;;;7372465;19;20344;-78
2022/04/21 00:15:01;;;;;;;4.07;3.08;;;8.00;99.90;;;;;;7371142;19;20304;-76
2022/04/21 00:17:26;;;;;;;3.38;2.95;;;8.00;99.90;;;;;;7373663;19;20348;-74
2022/04/21 00:19:52;;;;;;;3.87;3.43;;;8.00;99.90;;;;;;7371200;19;20344;-77
2022/04/21 00:25:02;;;;;;;3.45;2.97;;;7.90;99.90;;;;;;7268268;19;2004464;-73
2022/04/21 00:27:28;;;;;;;4.70;3.35;;;8.00;99.90;;;;;;7373081;19;20333;-76
2022/04/21 00:29:55;;;;;;;3.33;3.03;;;8.00;99.90;;;;;;7369147;19;20340;-78
2022/04/21 00:32:21;;;;;;;4.78;3.50;;;8.00;99.90;;;;;;7368734;19;20305;-72
2022/04/21 00:34:46;;;;;;;4.37;3.43;;;7.90;99.90;;;;;;7372818;19;20372;-75
2022/04/21 00:37:12;;;;;;;5.00;3.25;;;8.00;99.90;;;;;;7374882;19;20320;-74
2022/04/21 00:39:38;;;;;;;3.87;3.17;;;8.00;99.90;;;;;;7376574;19;20338;-72
2022/04/21 00:42:04;;;;;;;4.55;3.38;;;8.00;99.90;;;;;;7370113;19;20317;-72
2022/04/21 00:44:30;;;;;;;3.30;3.00;;;7.90;99.90;;;;;;7371104;19;20332;-80
2022/04/21 00:46:57;;;;;;;3.53;3.08;;;7.90;99.90;;;;;;7370523;19;20332;-74
2022/04/21 00:49:23;;;;;;;3.67;3.17;;;7.90;99.90;;;;;;7371142;19;22527;-75
2022/04/21 00:51:50;;;;;;;6.05;3.88;;;7.90;99.90;;;;;;7375942;19;20372;-73
2022/04/21 00:54:16;;;;;;;3.50;3.20;;;7.90;99.90;;;;;;7378444;19;20822;-73
2022/04/21 00:56:42;;;;;;;4.43;3.42;;;7.80;99.90;;;;;;7374449;19;20681;-83
2022/04/21 00:59:07;;;;;;;3.40;3.10;;;7.90;99.90;;;;;;7378119;19;20341;-83
2022/04/21 01:04:19;;;;;;;3.92;3.45;;;7.90;99.90;;;;;;7276004;19;2006066;-77
2022/04/21 01:06:45;;;;;;;3.38;3.03;;;7.90;99.90;;;;;;7376664;19;21459;-80
2022/04/21 01:09:11;;;;;;;5.22;3.67;;;7.90;99.90;;;;;;7376862;19;20436;-76
2022/04/21 01:11:37;;;;;;;3.80;3.30;;;7.90;99.90;;;;;;7373619;19;20754;-74
2022/04/21 01:14:03;;;;;;;5.20;3.78;;;7.80;99.90;;;;;;7377458;19;20672;-73
2022/04/21 01:16:29;;;;;;;4.95;3.50;;;7.80;99.90;;;;;;7375796;19;20356;-72
2022/04/21 01:18:56;;;;;;;4.78;3.90;;;7.80;99.90;;;;;;7379318;19;20308;-72
2022/04/21 01:21:22;;;;;;;3.90;3.38;;;7.90;99.90;;;;;;7373854;19;20351;-73
2022/04/21 01:23:47;;;;;;;3.90;3.50;;;7.80;99.90;;;;;;7377589;19;20328;-74
2022/04/21 01:26:13;;;;;;;3.28;2.97;;;7.70;99.90;;;;;;7377811;19;20399;-79
2022/04/21 01:28:39;;;;;;;6.27;3.63;;;7.80;99.90;;;;;;7380593;19;20328;-75
2022/04/21 01:31:05;;;;;;;4.47;3.25;;;7.80;99.90;;;;;;7369385;19;22116;-74
2022/04/21 01:33:30;;;;;;;4.83;3.70;;;7.80;99.90;;;;;;7368188;19;21211;-75
2022/04/21 01:35:56;;;;;;;4.20;3.80;;;7.80;99.90;;;;;;7368491;19;20343;-74
2022/04/21 01:41:09;;;;;;;3.65;3.33;;;7.80;99.90;;;;;;7273836;19;2004832;-74
2022/04/21 01:43:35;;;;;;;3.67;3.30;;;7.70;99.90;;;;;;7376088;19;20353;-72
2022/04/21 01:46:01;;;;;;;3.40;3.10;;;7.70;99.90;;;;;;7375805;19;20800;-74
2022/04/21 01:48:27;;;;;;;5.00;3.95;;;7.80;99.90;;;;;;7378121;19;20340;-73
2022/04/21 01:50:52;;;;;;;4.63;3.97;;;7.70;99.90;;;;;;7372579;19;20365;-76
2022/04/21 01:53:18;;;;;;;4.53;3.60;;;7.70;99.90;;;;;;7375432;19;20975;-74
2022/04/21 01:55:44;;;;;;;4.00;3.60;;;7.70;99.90;;;;;;7377274;19;21303;-79
2022/04/21 01:58:09;;;;;;;3.80;3.40;;;7.60;99.90;;;;;;7376085;19;20348;-78
2022/04/21 02:00:35;;;;;;;4.10;3.67;;;7.60;99.90;;;;;;7374559;19;20344;-75
2022/04/21 02:03:03;;;;;;;4.55;3.95;;;7.70;99.90;;;;;;7375941;19;20357;-79
2022/04/21 02:05:28;;;;;;;4.63;3.53;;;7.60;99.90;;;;;;7374357;19;20344;-77
2022/04/21 02:07:54;;;;;;;3.58;3.28;;;7.60;99.90;;;;;;7377734;19;20321;-77
2022/04/21 02:10:21;;;;;;;4.55;3.58;;;7.70;99.90;;;;;;7371851;19;20367;-74
2022/04/21 02:12:47;;;;;;;3.97;3.30;;;7.60;99.90;;;;;;7374100;19;20702;-78
2022/04/21 02:15:13;;;;;;;4.50;4.10;;;7.70;99.90;;;;;;7375209;19;20397;-76
2022/04/21 02:17:39;;;;;;;3.60;3.30;;;7.60;99.90;;;;;;7376713;19;20360;-74
2022/04/21 02:20:06;;;;;;;5.22;3.50;;;7.60;99.90;;;;;;7375821;19;21048;-73
2022/04/21 02:22:32;;;;;;;3.90;3.40;;;7.70;99.90;;;;;;7377415;19;20312;-74
2022/04/21 02:24:58;;;;;;;4.53;3.38;;;7.70;99.90;;;;;;7376263;19;20719;-74
2022/04/21 02:27:24;;;;;;;4.23;3.43;;;7.70;99.90;;;;;;7374031;19;20344;-79
2022/04/21 02:29:49;;;;;;;4.23;3.30;;;7.70;99.90;;;;;;7377099;19;20445;-81
2022/04/21 02:32:15;;;;;;;5.50;4.22;;;7.60;99.90;;;;;;7374353;19;20341;-75
2022/04/21 02:34:41;;;;;;;4.23;3.40;;;7.50;99.90;;;;;;7376514;19;20333;-76
2022/04/21 02:37:07;;;;;;;5.25;4.10;;;7.60;99.90;;;;;;7374209;19;20337;-75
2022/04/21 02:39:33;;;;;;;4.90;3.75;;;7.50;99.90;;;;;;7376072;19;20336;-75
2022/04/21 02:42:00;;;;;;;4.47;3.50;;;7.50;99.90;;;;;;7371362;19;20321;-76
2022/04/21 02:44:26;;;;;;;4.13;3.10;;;7.60;99.90;;;;;;7374636;19;20360;-76
2022/04/21 02:46:52;;;;;;;5.20;3.80;;;7.60;99.90;;;;;;7373523;19;20365;-73
2022/04/21 02:49:18;;;;;;;3.80;3.30;;;7.60;99.90;;;;;;7374970;19;21184;-74
2022/04/21 02:51:43;;;;;;;6.13;3.83;;;7.70;99.90;;;;;;7370445;19;20339;-77
2022/04/21 02:59:39;;;;;;;4.85;3.78;;;7.50;99.90;;;;;;7374359;19;20419;-76
2022/04/21 03:02:05;;;;;;;4.45;3.72;;;7.50;99.90;;;;;;7368983;19;20963;-74
2022/04/21 03:04:30;;;;;;;5.60;3.90;;;7.50;99.90;;;;;;7370626;19;21205;-75
2022/04/21 03:06:56;;;;;;;4.65;3.15;;;7.50;99.90;;;;;;7372811;19;20377;-77
2022/04/21 03:09:21;;;;;;;5.40;3.90;;;7.50;99.90;;;;;;7386837;19;20719;-71
2022/04/21 03:11:48;;;;;;;5.10;3.40;;;7.50;99.90;;;;;;7360319;19;20779;-75
2022/04/21 03:14:15;;;;;;;4.70;3.35;;;7.50;99.90;;;;;;7370852;19;20336;-74
2022/04/21 03:16:41;;;;;;;4.35;3.38;;;7.40;99.90;;;;;;7349963;19;20341;-73
2022/04/21 03:19:07;;;;;;;5.00;3.63;;;7.50;99.90;;;;;;7372958;19;20342;-75
2022/04/21 03:24:20;;;;;;;5.18;4.07;;;7.60;99.90;;;;;;7373192;19;20873;-76
2022/04/21 03:26:49;;;;;;;5.30;3.42;;;7.40;99.90;;;;;;7372571;19;20378;-78
2022/04/21 03:29:15;;;;;;;4.23;3.30;;;7.40;99.90;;;;;;7374932;19;20315;-76
2022/04/21 03:31:44;;;;;;;5.03;3.50;;;7.40;99.90;;;;;;7369635;19;20349;-74
2022/04/21 03:34:12;;;;;;;4.53;3.60;;;7.30;99.90;;;;;;7374869;19;20340;-75
2022/04/21 03:36:38;;;;;;;3.33;3.03;;;7.30;99.90;;;;;;7374111;19;20339;-74
2022/04/21 03:39:04;;;;;;;4.15;3.72;;;7.30;99.90;;;;;;7375956;19;20355;-74
2022/04/21 03:41:30;;;;;;;5.40;3.50;;;7.40;99.90;;;;;;7373019;19;20325;-74
2022/04/21 03:43:55;;;;;;;4.53;3.50;;;7.30;99.90;;;;;;7374097;19;20330;-73
2022/04/21 03:46:21;;;;;;;4.72;3.75;;;7.30;99.90;;;;;;7374391;19;20356;-76
2022/04/21 03:48:46;;;;;;;5.33;3.80;;;7.20;99.90;;;;;;7374921;19;20352;-73
2022/04/21 03:51:12;;;;;;;5.13;4.25;;;7.20;99.90;;;;;;7372184;19;20305;-73
2022/04/21 03:53:38;;;;;;;6.55;3.70;;;7.20;99.90;;;;;;7373832;19;20410;-73
2022/04/21 03:56:04;;;;;;;4.67;3.47;;;7.20;99.90;;;;;;7373329;19;20426;-74
2022/04/21 03:58:29;;;;;;;5.45;4.32;;;7.30;99.90;;;;;;7376228;19;21035;-78
2022/04/21 04:00:55;;;;;;;5.70;4.17;;;7.30;99.90;;;;;;7370205;19;20364;-74
2022/04/21 04:03:21;;;;;;;5.30;3.80;;;7.20;99.90;;;;;;7377038;19;20432;-73
2022/04/21 04:05:46;;;;;;;5.90;3.80;;;7.20;99.90;;;;;;7375270;19;20715;-72
2022/04/21 04:10:56;;;;;;;4.60;3.72;;;7.30;99.90;;;;;;7369473;19;20370;-72
2022/04/21 04:13:22;;;;;;;4.57;3.85;;;7.40;99.90;;;;;;7371526;19;20347;-77
2022/04/21 04:15:49;;;;;;;5.70;4.25;;;7.40;99.90;;;;;;7372240;19;21018;-73
2022/04/21 04:18:15;;;;;;;5.20;3.95;;;7.30;99.90;;;;;;7373466;19;20344;-74
2022/04/21 04:20:41;;;;;;;6.93;4.20;;;7.30;99.90;;;;;;7372654;19;20332;-74
2022/04/21 04:23:07;;;;;;;4.85;3.60;;;7.30;99.90;;;;;;7368269;19;20372;-79
2022/04/21 04:25:33;;;;;;;4.73;3.70;;;7.30;99.90;;;;;;7368131;19;20313;-73
2022/04/21 04:27:58;;;;;;;6.70;3.87;;;7.30;99.90;;;;;;7373582;19;20667;-82
2022/04/21 04:30:24;;;;;;;4.90;3.55;;;7.40;99.90;;;;;;7367959;19;22811;-76
2022/04/21 04:32:49;;;;;;;5.25;3.88;;;7.40;99.90;;;;;;7370087;19;20717;-73
2022/04/21 04:35:15;;;;;;;4.33;3.87;;;7.30;99.90;;;;;;7371931;19;20345;-73
2022/04/21 04:37:41;;;;;;;5.32;3.50;;;7.40;99.90;;;;;;7371865;19;20347;-75
2022/04/21 04:40:07;;;;;;;4.80;3.70;;;7.40;99.90;;;;;;7369785;19;20337;-77
2022/04/21 04:42:32;;;;;;;6.90;4.32;;;7.50;99.90;;;;;;7372021;19;20360;-72
2022/04/21 04:47:42;;;;;;;4.20;3.28;;;7.60;99.90;;;;;;7372777;19;20430;-73
2022/04/21 04:50:08;;;;;;;4.60;3.60;;;7.60;99.90;;;;;;7377848;19;20891;-75
2022/04/21 04:52:34;;;;;;;4.88;4.03;;;7.60;99.90;;;;;;7368052;19;20874;-73
2022/04/21 04:55:00;;;;;;;5.53;4.00;;;7.60;99.90;;;;;;7370078;19;20444;-72
2022/04/21 04:57:25;;;;;;;5.73;4.20;;;7.60;99.90;;;;;;7370958;19;20341;-81
2022/04/21 04:59:51;;;;;;;5.10;3.92;;;7.60;99.90;;;;;;7371225;19;20340;-76
2022/04/21 05:02:20;;;;;;;6.17;4.80;;;7.60;99.90;;;;;;7367717;19;21373;-75
2022/04/21 05:04:47;;;;;;;3.90;3.58;;;7.60;99.90;;;;;;7371080;19;20918;-72
2022/04/21 05:07:13;;;;;;;5.82;4.30;;;7.70;99.90;;;;;;7371383;19;20345;-72
2022/04/21 05:09:39;;;;;;;6.05;4.50;;;7.70;99.90;;;;;;7371318;19;20356;-74
2022/04/21 05:12:05;;;;;;;4.63;4.00;;;7.60;99.90;;;;;;7366606;19;20321;-73
2022/04/21 05:14:30;;;;;;;5.57;3.95;;;7.60;99.90;;;;;;7369895;19;20425;-76
2022/04/21 05:16:56;;;;;;;5.32;4.20;;;7.50;99.90;;;;;;7368087;19;20325;-72
2022/04/21 05:19:22;;;;;;;7.13;4.40;;;7.60;99.90;;;;;;7369927;19;20347;-74
2022/04/21 05:21:49;;;;;;;8.50;4.75;;;7.50;99.90;;;;;;7365208;19;20336;-72
2022/04/21 05:24:15;;;;;;;7.55;5.50;;;7.50;99.90;;;;;;7369780;19;20324;-72
2022/04/21 05:26:41;;;;;;;5.70;4.43;;;7.50;99.90;;;;;;7370780;19;20353;-73
2022/04/21 05:32:01;;;;;;;7.78;6.07;;;7.50;99.90;;;;;;7366876;19;20337;-76
2022/04/21 05:34:28;;;;;;;8.93;5.60;;;7.40;99.90;;;;;;7368517;19;20368;-74
2022/04/21 05:36:54;;;;;;;8.90;5.75;;;7.50;99.90;;;;;;7369428;19;20328;-76
2022/04/21 05:39:20;;;;;;;8.13;5.82;;;7.50;99.90;;;;;;7377441;19;20313;-74
2022/04/21 05:41:46;;;;;;;9.93;6.60;;;7.50;99.90;;;;;;7370417;19;20356;-69
2022/04/21 05:44:12;;;;;;;9.50;6.60;;;7.50;99.90;;;;;;7376539;19;21013;-73
2022/04/21 05:46:38;;;;;;;11.05;6.80;;;7.40;99.90;;;;;;7377138;19;20341;-70
2022/04/21 05:49:04;;;;;;;10.85;7.13;;;7.50;99.90;;;;;;7380471;19;20317;-73
2022/04/21 05:51:30;;;;;;;8.88;6.60;;;7.50;99.90;;;;;;7376805;19;20973;-76
2022/04/21 05:53:57;;;;;;;12.93;8.23;;;7.50;99.90;;;;;;7380478;19;20358;-75
2022/04/21 05:56:23;;;;;;;11.48;7.20;;;7.50;99.90;;;;;;7377235;19;20412;-74
2022/04/21 05:58:49;;;;;;;11.18;6.95;;;7.50;99.90;;;;;;7381127;19;20305;-83
2022/04/21 06:01:14;;;;;;;13.15;8.23;;;7.60;99.90;;;;;;7376221;19;20865;-73
2022/04/21 06:03:41;;;;;;;16.67;9.33;;;7.60;99.90;;;;;;7375049;19;20420;-74
2022/04/21 06:06:07;;;;;;;11.38;8.48;;;7.60;99.90;;;;;;7376285;19;20325;-75
2022/04/21 06:08:33;;;;;;;11.27;8.23;;;7.60;99.90;;;;;;7376530;19;21031;-76
2022/04/21 06:10:58;;;;;;;11.30;7.70;;;7.60;99.90;;;;;;7376567;19;21123;-73
2022/04/21 06:13:25;;;;;;;11.50;7.60;;;7.60;99.90;;;;;;7377566;19;20373;-74
2022/04/21 06:15:50;;;;;;;13.20;7.95;;;7.60;99.90;;;;;;7376123;19;20750;-78
2022/04/21 06:18:16;;;;;;;15.18;9.43;;;7.60;99.90;;;;;;7379163;19;20369;-73
2022/04/21 06:20:42;;;;;;;10.68;7.45;;;7.70;99.90;;;;;;7376888;19;20325;-74
2022/04/21 06:23:08;;;;;;;12.93;8.50;;;7.80;99.90;;;;;;7375793;19;20371;-74
2022/04/21 06:25:35;;;;;;;11.48;7.90;;;7.80;99.90;;;;;;7375827;19;20396;-75
2022/04/21 06:28:03;;;;;;;9.90;7.28;;;7.80;99.90;;;;;;7375563;19;20343;-72
2022/04/21 06:30:28;;;;;;;11.90;8.07;;;7.80;99.90;;;;;;7379526;19;20320;-80
2022/04/21 06:32:54;;;;;;;12.38;7.88;;;7.80;99.90;;;;;;7382010;19;20304;-75
2022/04/21 06:35:20;;;;;;;12.43;7.63;;;7.80;99.90;;;;;;7375078;19;20353;-72
2022/04/21 06:37:46;;;;;;;11.48;7.57;;;7.90;99.90;;;;;;7378294;19;20320;-73
2022/04/21 06:40:12;;;;;;;11.25;7.80;;;7.90;99.90;;;;;;7376649;19;20333;-73
2022/04/21 06:42:38;;;;;;;12.48;8.98;;;7.90;99.90;;;;;;7378668;19;20328;-71
2022/04/21 06:48:04;;;;;;;10.32;7.97;;;7.90;99.90;;;;;;7274667;19;2004325;-73
2022/04/21 06:50:36;;;;;;;10.10;7.33;;;8.00;99.90;;;;;;7375580;19;20332;-72
2022/04/21 06:53:03;;;;;;;12.38;7.95;;;8.00;99.90;;;;;;7374657;19;20435;-74
2022/04/21 06:55:29;;;;;;;10.95;7.13;;;8.20;99.90;;;;;;7376492;19;21260;-73
2022/04/21 06:57:55;;;;;;;12.10;7.30;;;8.10;99.90;;;;;;7378868;19;20345;-73
2022/04/21 07:00:22;;;;;;;10.73;7.32;;;8.10;99.90;;;;;;7373665;19;21453;-74
2022/04/21 07:02:55;;;;;;;9.73;7.75;;;8.20;99.90;;;;;;7375938;19;26985;-73
2022/04/21 07:05:22;;;;;;;9.00;6.95;;;8.10;99.90;;;;;;7375570;19;20329;-73
2022/04/21 07:07:48;;;;;;;10.90;7.82;;;8.10;99.90;;;;;;7376623;19;21035;-72
2022/04/21 07:10:14;;;;;;;12.60;7.88;;;8.20;99.90;;;;;;7377496;19;20312;-74
2022/04/21 07:12:40;;;;;;;9.48;6.90;;;8.20;99.90;;;;;;7380082;19;20340;-73
2022/04/21 07:15:07;;;;;;;8.68;6.60;;;8.20;99.90;;;;;;7371922;19;20374;-72
2022/04/21 07:17:33;;;;;;;7.68;6.72;;;8.30;99.90;;;;;;7377504;19;20303;-72
2022/04/21 07:19:59;;;;;;;7.67;6.77;;;8.30;99.90;;;;;;7377449;19;20333;-72
2022/04/21 07:22:25;;;;;;;10.10;6.70;;;8.30;99.90;;;;;;7376106;19;20400;-73
2022/04/21 07:24:51;;;;;;;9.70;7.93;;;8.40;99.90;;;;;;7377002;19;20332;-73
2022/04/21 07:27:17;;;;;;;10.15;7.00;;;8.30;99.90;;;;;;7375732;19;20329;-73
2022/04/21 07:29:43;;;;;;;11.43;7.70;;;8.30;99.90;;;;;;7380999;19;20393;-73
2022/04/21 07:32:09;;;;;;;9.70;7.00;;;8.30;99.90;;;;;;7373101;19;20340;-73
2022/04/21 07:34:35;;;;;;;9.30;7.30;;;8.30;99.90;;;;;;7376358;19;20373;-73
2022/04/21 07:37:00;;;;;;;11.23;7.78;;;8.30;99.90;;;;;;7374158;19;20750;-75
2022/04/21 07:39:26;;;;;;;11.27;7.10;;;8.40;99.90;;;;;;7375909;19;20320;-73
2022/04/21 07:41:52;;;;;;;10.57;7.05;;;8.40;99.90;;;;;;7374642;19;20356;-72
2022/04/21 07:44:17;;;;;;;10.60;7.47;;;8.50;99.90;;;;;;7376878;19;20333;-74
2022/04/21 07:46:43;;;;;;;10.27;7.73;;;8.50;99.90;;;;;;7376470;19;20880;-75
2022/04/21 07:53:13;;;;;;;7.70;6.07;;;8.60;99.90;;;;;;7267187;19;2004352;-72
2022/04/21 07:54:38;;;;;;;10.50;7.53;;;8.80;99.90;;;;;;7372589;19;20336;-72
2022/04/21 07:57:04;;;;;;;11.63;6.83;;;8.80;99.90;;;;;;7372561;19;21247;-72
2022/04/21 07:59:30;;;;;;;10.13;7.55;;;9.00;99.90;;;;;;7377526;19;20316;-71
2022/04/21 08:01:56;;;;;;;8.38;6.97;;;9.00;99.90;;;;;;7371592;19;20333;-74
2022/04/21 08:04:22;;;;;;;10.32;7.50;;;9.10;99.90;;;;;;7375228;19;20320;-73
2022/04/21 08:06:49;;;;;;;8.53;7.20;;;9.20;99.90;;;;;;7373905;19;20346;-72
2022/04/21 08:09:15;;;;;;;10.70;7.38;;;9.30;99.90;;;;;;7375468;19;20749;-71
2022/04/21 08:11:40;;;;;;;10.18;7.50;;;9.30;99.90;;;;;;7374183;19;20348;-73
2022/04/21 08:14:06;;;;;;;11.27;7.33;;;9.40;99.90;;;;;;7372422;19;20908;-73
2022/04/21 08:16:32;;;;;;;8.70;6.88;;;9.40;99.90;;;;;;7375423;19;20346;-74
2022/04/21 08:18:59;;;;;;;11.00;7.35;;;9.40;99.90;;;;;;7375620;19;20380;-75
2022/04/21 08:21:25;;;;;;;6.93;6.03;;;9.40;99.90;;;;;;7371118;19;20928;-73
2022/04/21 08:23:51;;;;;;;7.70;6.20;;;9.40;99.90;;;;;;7374144;19;20422;-74
2022/04/21 08:34:30;;;;;;;6.20;5.25;;;9.50;99.90;;;;;;7376815;19;20944;-76
2022/04/21 08:36:56;;;;;;;6.17;5.00;;;9.60;99.90;;;;;;7373448;19;20321;-71
2022/04/21 08:39:22;;;;;;;7.53;5.90;;;9.70;99.90;;;;;;7371460;19;20361;-73
2022/04/21 08:41:51;;;;;;;7.78;5.80;;;9.80;99.90;;;;;;7370572;19;20340;-72
2022/04/21 08:44:19;;;;;;;6.75;5.85;;;9.80;99.90;;;;;;7372324;19;20316;-71
2022/04/21 08:46:46;;;;;;;6.43;5.47;;;9.80;99.90;;;;;;7371649;19;20333;-73
2022/04/21 08:49:13;;;;;;;6.38;5.60;;;9.90;99.90;;;;;;7372270;19;21335;-73
2022/04/21 08:51:38;;;;;;;7.83;5.23;;;10.00;99.90;;;;;;7368410;19;20383;-71
2022/04/21 08:54:05;;;;;;;5.32;4.80;;;10.00;99.90;;;;;;7367866;19;20707;-75
2022/04/21 08:56:30;;;;;;;7.47;5.10;;;10.10;99.90;;;;;;7372075;19;20337;-78
2022/04/21 08:58:56;;;;;;;6.63;5.03;;;10.10;99.90;;;;;;7374033;19;20888;-75
2022/04/21 09:01:22;;;;;;;6.07;5.30;;;10.10;99.90;;;;;;7370487;19;20340;-74
2022/04/21 09:03:48;;;;;;;5.27;4.67;;;10.20;99.90;;;;;;7372781;19;20324;-81
2022/04/21 09:06:27;;;;;;;5.50;4.70;;;10.30;99.90;;;;;;7334397;19;20304;-74
2022/04/21 09:09:21;;;;;;;5.30;4.78;;;10.30;99.90;;;;;;7199407;19;2004359;-78
2022/04/21 09:11:53;;;;;;;5.43;4.93;;;10.40;99.90;;;;;;7375363;19;20877;-73
2022/04/21 09:14:20;;;;;;;9.48;5.72;;;10.50;99.90;;;;;;7380073;19;20352;-74
2022/04/21 09:16:46;;;;;;;6.32;5.20;;;10.60;99.90;;;;;;7378748;19;20339;-74
2022/04/21 09:19:15;;;;;;;10.07;5.20;;;10.60;99.90;;;;;;7376144;19;20726;-73
2022/04/21 09:21:41;;;;;;;8.02;5.45;;;10.60;99.90;;;;;;7373197;19;20340;-74
2022/04/21 09:24:21;;;;;;;7.60;5.60;;;10.50;99.90;;;;;;7375115;19;20431;-74
2022/04/21 09:26:46;;;;;;;7.70;5.82;;;10.50;99.90;;;;;;7271939;19;2004371;-75
2022/04/21 09:29:21;;;;;;;8.50;5.40;;;10.40;99.90;;;;;;7377662;19;21057;-74
2022/04/21 09:31:47;;;;;;;7.38;5.75;;;10.40;99.90;;;;;;7376424;19;20328;-74
2022/04/21 09:34:12;;;;;;;8.40;5.35;;;10.40;99.90;;;;;;7377039;19;20344;-78
2022/04/21 09:36:38;;;;;;;8.50;5.87;;;10.50;99.90;;;;;;7377472;19;20344;-73
2022/04/21 09:39:04;;;;;;;6.30;5.70;;;10.40;99.90;;;;;;7379013;19;20316;-74
2022/04/21 09:41:29;;;;;;;6.50;5.63;;;10.50;99.90;;;;;;7379426;19;20362;-74
2022/04/21 09:46:07;;;;;;;7.22;5.88;;;10.50;99.90;;;;;;7380767;19;20373;-73
2022/04/21 09:46:56;;;;;;;6.65;5.93;;;10.60;99.90;;;;;;7275008;19;2004463;-74
2022/04/21 09:49:47;;;;;;;6.70;6.00;;;10.80;99.90;;;;;;7382060;19;20320;-73
2022/04/21 09:52:13;;;;;;;7.82;6.13;;;10.90;99.90;;;;;;7276435;19;2004457;-73
2022/04/21 09:54:41;;;;;;;9.20;5.93;;;10.90;99.90;;;;;;7382565;19;20352;-73
2022/04/21 09:57:07;;;;;;;7.25;6.32;;;10.90;99.90;;;;;;7379189;19;20845;-74
2022/04/21 09:59:36;;;;;;;8.80;6.03;;;10.90;99.90;;;;;;7379104;19;20358;-73
2022/04/21 10:02:02;;;;;;;8.25;6.38;;;10.90;99.90;;;;;;7373829;19;20316;-74
2022/04/21 10:04:29;;;;;;;6.87;5.87;;;10.80;99.90;;;;;;7377045;19;20316;-72
2022/04/21 10:06:54;;;;;;;9.52;6.38;;;10.80;99.90;;;;;;7377079;19;20360;-73
2022/04/21 10:09:20;;;;;;;9.50;7.10;;;10.90;99.90;;;;;;7379289;19;20754;-74
2022/04/21 10:11:46;;;;;;;7.13;6.18;;;10.90;99.90;;;;;;7375201;19;20814;-73
2022/04/21 10:14:12;;;;;;;10.03;7.33;;;10.90;99.90;;;;;;7377477;19;20773;-70
2022/04/21 10:16:38;;;;;;;7.28;6.05;;;10.90;99.90;;;;;;7356623;19;20953;-73
2022/04/21 10:19:04;;;;;;;7.55;6.50;;;10.90;99.90;;;;;;7377846;19;20331;-78
2022/04/21 10:21:31;;;;;;;9.05;6.40;;;10.80;99.90;;;;;;7375961;19;20308;-75
2022/04/21 10:23:57;;;;;;;7.20;6.10;;;10.80;99.90;;;;;;7375105;19;20320;-74
2022/04/21 10:26:39;;;;;;;6.60;5.90;;;10.90;99.90;;;;;;7375397;19;20340;-73
2022/04/21 10:29:22;;;;;;;7.63;6.30;;;10.90;99.90;;;;;;7378665;19;20333;-75
2022/04/21 10:31:47;;;;;;;6.85;6.13;;;10.90;99.90;;;;;;7373027;19;20392;-73
2022/04/21 10:34:32;;;;;;;7.40;6.55;;;11.00;99.90;;;;;;7377633;19;20436;-73
2022/04/21 10:37:10;;;;;;;7.35;5.80;;;11.10;99.90;;;;;;7377513;19;20775;-73
2022/04/21 10:39:36;;;;;;;8.32;6.47;;;11.10;99.90;;;;;;7377183;19;20354;-72
2022/04/21 10:42:06;;;;;;;8.50;7.00;;;11.10;99.90;;;;;;7373110;19;20308;-73
2022/04/21 10:44:31;;;;;;;8.43;6.57;;;11.10;99.90;;;;;;7376569;19;20995;-74
2022/04/21 10:47:35;;;;;;;8.75;6.93;;;11.00;99.90;;;;;;7374905;19;20338;-74
2022/04/21 10:50:31;;;;;;;8.18;6.93;;;11.00;99.90;;;;;;7274848;19;2004560;-73
2022/04/21 10:58:51;;;;;;;8.45;7.07;;;11.00;99.90;;;;;;7377499;19;20320;-73
2022/04/21 11:01:17;;;;;;;9.40;7.22;;;10.90;99.90;;;;;;7268695;19;2004611;-73
2022/04/21 11:03:45;;;;;;;9.55;7.57;;;10.90;99.90;;;;;;7373629;19;20984;-73
2022/04/21 11:06:12;;;;;;;9.07;6.88;;;10.90;99.90;;;;;;7370813;19;20340;-73
2022/04/21 11:08:37;;;;;;;9.02;6.80;;;10.90;99.90;;;;;;7376409;19;20676;-73
2022/04/21 11:11:03;;;;;;;8.27;6.50;;;10.90;99.90;;;;;;7368433;19;20362;-74
2022/04/21 11:13:49;;;;;;;7.45;6.70;;;10.90;99.90;;;;;;7345088;19;20341;-73
2022/04/21 11:16:40;;;;;;;9.70;8.15;;;11.00;99.90;;;;;;7374303;19;20354;-73
2022/04/21 11:19:46;;;;;;;10.85;8.15;;;10.90;99.90;;;;;;7376875;19;20304;-73
2022/04/21 11:22:13;;;;;;;9.95;8.02;;;10.80;99.90;;;;;;7274344;19;2004858;-73
2022/04/21 11:24:58;;;;;;;9.80;7.40;;;10.80;99.90;;;;;;7372479;19;20341;-75
2022/04/21 11:27:25;;;;;;;9.40;7.45;;;10.70;99.90;;;;;;7376219;19;20329;-73
2022/04/21 11:29:50;;;;;;;11.18;8.02;;;10.70;99.90;;;;;;7375351;19;20620;-74
2022/04/21 11:32:17;;;;;;;9.85;7.38;;;10.70;99.90;;;;;;7377757;19;20862;-75
2022/04/21 11:34:56;;;;;;;10.55;7.95;;;10.80;99.90;;;;;;7373985;19;20344;-73
2022/04/21 11:37:21;;;;;;;9.18;7.38;;;10.70;99.90;;;;;;7375668;19;20333;-73
2022/04/21 11:39:47;;;;;;;11.70;8.20;;;10.70;99.90;;;;;;7375073;19;20332;-72
2022/04/21 11:42:23;;;;;;;12.52;9.27;;;10.80;99.90;;;;;;7375952;19;20399;-75
2022/04/21 11:44:49;;;;;;;11.18;9.05;;;10.70;99.90;;;;;;7375814;19;20403;-71
2022/04/21 11:47:21;;;;;;;11.70;8.90;;;10.70;99.90;;;;;;7373951;19;20332;-74
2022/04/21 11:50:02;;;;;;;15.82;10.35;;;10.80;99.90;;;;;;7377664;19;20368;-73
2022/04/21 11:52:27;;;;;;;13.38;10.52;;;10.70;99.90;;;;;;7374775;19;21153;-74
2022/04/21 11:55:04;;;;;;;14.90;10.52;;;10.70;99.90;;;;;;7375964;19;20404;-73
2022/04/21 11:57:43;;;;;;;16.52;9.88;;;10.70;99.90;;;;;;7273468;19;2004576;-74
2022/04/21 12:00:09;;;;;;;14.93;10.90;;;10.70;99.90;;;;;;7272151;19;2004829;-74
2022/04/21 12:08:07;;;;;;;13.88;10.38;;;10.70;99.90;;;;;;7272334;19;2004788;-74
2022/04/21 12:10:34;;;;;;;13.13;10.03;;;10.70;99.90;;;;;;7370382;19;20406;-75
2022/04/21 12:13:01;;;;;;;13.10;10.10;;;10.70;99.90;;;;;;7373279;19;20333;-74
2022/04/21 12:15:31;;;;;;;15.00;11.07;;;10.90;99.90;;;;;;7371296;19;22118;-74
2022/04/21 12:18:02;;;;;;;15.88;10.38;;;11.00;99.90;;;;;;7372706;19;20313;-73
2022/04/21 12:20:28;;;;;;;12.60;9.75;;;11.10;99.90;;;;;;7374473;19;20332;-74
2022/04/21 12:22:57;;;;;;;13.83;10.27;;;11.10;99.90;;;;;;7372963;19;20373;-73
2022/04/21 12:25:32;;;;;;;12.98;9.82;;;11.20;99.90;;;;;;7373493;19;20316;-74
2022/04/21 12:28:02;;;;;;;14.13;9.87;;;11.30;99.90;;;;;;7374386;19;20305;-75
2022/04/21 12:30:28;;;;;;;15.03;10.93;;;11.40;99.90;;;;;;7372953;19;20336;-73
2022/04/21 12:32:53;;;;;;;14.13;10.38;;;11.50;99.90;;;;;;7375131;19;20332;-76
2022/04/21 12:35:45;;;;;;;12.50;10.57;;;11.50;99.90;;;;;;7374022;19;20420;-70
2022/04/21 12:40:59;;;;;;;14.38;10.90;;;11.50;99.90;;;;;;7374380;19;20345;-74
2022/04/21 12:43:28;;;;;;;16.35;11.70;;;11.40;99.90;;;;;;7373246;19;21145;-74
2022/04/21 12:45:57;;;;;;;17.98;12.52;;;11.30;99.90;;;;;;7370948;19;20716;-74
2022/04/21 12:48:25;;;;;;;18.58;11.80;;;11.30;99.90;;;;;;7375045;19;20301;-72
2022/04/21 12:50:51;;;;;;;17.73;12.50;;;11.30;99.90;;;;;;7372167;19;20333;-74
2022/04/21 12:53:26;;;;;;;16.80;11.98;;;11.40;99.90;;;;;;7371950;19;20439;-73
2022/04/21 12:55:53;;;;;;;19.20;12.83;;;11.40;99.90;;;;;;7371380;19;20308;-76
2022/04/21 12:58:27;;;;;;;21.20;12.52;;;11.30;99.90;;;;;;7374684;19;20320;-75
2022/04/21 13:00:53;;;;;;;15.48;11.20;;;11.30;99.90;;;;;;7370279;19;20366;-74
2022/04/21 13:03:19;;;;;;;15.90;11.00;;;11.40;99.90;;;;;;7372982;19;20793;-73
2022/04/21 13:05:51;;;;;;;15.83;11.63;;;11.40;99.90;;;;;;7372851;19;20894;-73
2022/04/21 13:08:20;;;;;;;18.08;11.98;;;11.50;99.90;;;;;;7374950;19;20324;-74
2022/04/21 13:10:46;;;;;;;18.00;12.47;;;11.50;99.90;;;;;;7373022;19;20345;-72
2022/04/21 13:13:12;;;;;;;16.80;11.73;;;11.60;99.90;;;;;;7372767;19;20492;-74
2022/04/21 13:15:38;;;;;;;16.83;11.50;;;11.60;99.90;;;;;;7370405;19;20745;-77
2022/04/21 13:18:03;;;;;;;14.93;10.80;;;11.80;99.90;;;;;;7373707;19;20328;-75
2022/04/21 13:23:13;;;;;;;16.52;10.70;;;12.20;99.90;;;;;;7273139;19;2004811;-76
2022/04/21 13:25:39;;;;;;;14.07;9.60;;;12.30;99.90;;;;;;7375672;19;20913;-74
2022/04/21 13:28:05;;;;;;;13.88;10.52;;;12.40;99.90;;;;;;7376207;19;20325;-76
2022/04/21 13:30:30;;;;;;;15.00;9.82;;;12.50;99.90;;;;;;7370718;19;20410;-76
2022/04/21 13:35:41;;;;;;;13.38;10.68;;;12.60;99.90;;;;;;7270393;19;2006043;-77
2022/04/21 13:38:06;;;;;;;15.45;10.50;;;12.60;99.90;;;;;;7373391;19;20380;-76
2022/04/21 13:40:33;;;;;;;14.77;11.13;;;12.70;99.90;;;;;;7370711;19;20983;-76
2022/04/21 13:42:59;;;;;;;13.95;10.15;;;12.70;99.90;;;;;;7373198;19;20304;-75
2022/04/21 13:45:25;;;;;;;14.75;10.15;;;12.80;99.90;;;;;;7369595;19;21001;-74
2022/04/21 13:47:51;;;;;;;15.45;10.68;;;12.90;99.90;;;;;;7373269;19;20348;-74